Time;durP1;ratioP1;P1;durP2;ratioP2;P2;SDS_P1;SDS_P2;PMS_P1;PMS_P2;Temp;Humidity;BMP_temperature;BMP_pressure;BME280_temperature;BME280_humidity;BME280_pressure;Samples;Min_cycle;Max_cycle;Signal;HPM_P1;HPM_P2
2022/07/12 00:00:12;;;;;;;1.05;0.57;;;;;;;30.09;35.26;101776.28;6246973;23;20015;-51
2022/07/12 00:02:41;;;;;;;4.50;1.08;;;;;;;30.00;35.62;101777.19;6247347;23;20007;-57
2022/07/12 00:05:09;;;;;;;2.15;0.70;;;;;;;30.08;35.49;101785.13;6246905;23;20009;-44
2022/07/12 00:07:38;;;;;;;5.10;0.65;;;;;;;30.10;35.54;101788.66;6247077;23;20376;-44
2022/07/12 00:10:05;;;;;;;1.27;0.85;;;;;;;30.07;35.60;101782.44;6246470;23;20083;-43
2022/07/12 00:12:34;;;;;;;1.58;0.65;;;;;;;29.95;35.67;101789.50;6247197;23;20427;-51
2022/07/12 00:15:03;;;;;;;1.63;0.80;;;;;;;29.99;35.36;101787.75;6247140;23;19996;-49
2022/07/12 00:17:31;;;;;;;2.72;0.60;;;;;;;30.03;35.79;101786.88;6247196;23;20010;-49
2022/07/12 00:20:00;;;;;;;2.40;0.73;;;;;;;30.09;35.27;101783.34;6246191;23;20305;-43
2022/07/12 00:22:28;;;;;;;2.22;0.80;;;;;;;30.01;35.40;101775.41;6246803;23;20015;-47
2022/07/12 00:24:57;;;;;;;2.60;0.95;;;;;;;29.96;35.41;101774.50;6246857;23;20382;-45
2022/07/12 00:27:25;;;;;;;4.13;1.17;;;;;;;29.90;35.84;101769.19;6247170;23;20114;-44
2022/07/12 00:29:54;;;;;;;1.08;0.50;;;;;;;29.85;35.72;101767.44;6220270;23;20328;-44
2022/07/12 00:32:23;;;;;;;1.52;0.60;;;;;;;29.90;35.60;101780.66;6246872;23;20007;-49
2022/07/12 00:34:51;;;;;;;2.40;1.00;;;;;;;29.78;35.99;101780.66;6246930;23;20008;-43
2022/07/12 00:37:19;;;;;;;7.22;1.20;;;;;;;29.81;35.91;101781.53;6246586;23;20000;-43
2022/07/12 00:39:48;;;;;;;2.50;0.90;;;;;;;29.66;35.98;101757.72;6246520;23;20008;-45
2022/07/12 00:42:17;;;;;;;2.28;0.85;;;;;;;29.71;36.00;101785.91;6246448;23;20432;-44
2022/07/12 00:44:46;;;;;;;1.92;0.75;;;;;;;29.83;35.85;101779.75;6246680;23;20439;-44
2022/07/12 00:47:27;;;;;;;2.47;0.90;;;;;;;29.80;35.90;101784.19;6220067;23;20008;-45
2022/07/12 00:49:55;;;;;;;2.08;0.70;;;;;;;29.74;35.97;101766.53;6247051;23;20005;-43
2022/07/12 00:52:24;;;;;;;3.47;0.82;;;;;;;29.67;36.06;101777.97;6220213;23;20004;-45
2022/07/12 00:54:53;;;;;;;2.03;0.73;;;;;;;29.68;36.11;101782.41;6245011;23;20034;-44
2022/07/12 00:57:21;;;;;;;4.15;0.80;;;;;;;29.77;35.71;101778.88;6246119;23;20008;-43
2022/07/12 00:59:50;;;;;;;2.15;0.75;;;;;;;29.56;35.83;101770.03;6245373;23;20019;-45
2022/07/12 01:02:18;;;;;;;1.90;0.70;;;;;;;29.67;35.67;101791.19;6246799;23;20004;-46
2022/07/12 01:04:50;;;;;;;6.88;1.08;;;;;;;29.70;35.94;101788.56;6247394;23;20008;-44
2022/07/12 01:07:19;;;;;;;2.40;0.77;;;;;;;29.73;36.08;101785.94;6220458;23;20006;-49
2022/07/12 01:09:48;;;;;;;1.80;0.60;;;;;;;29.59;36.12;101785.03;6247481;23;20006;-56
2022/07/12 01:12:16;;;;;;;4.07;0.80;;;;;;;29.70;35.76;101784.16;6219718;23;20354;-43
2022/07/12 01:14:46;;;;;;;1.33;0.73;;;;;;;29.69;35.84;101784.16;6246189;23;20000;-44
2022/07/12 01:17:14;;;;;;;3.55;1.10;;;;;;;29.58;35.87;101770.91;6244747;23;20008;-44
2022/07/12 01:19:43;;;;;;;1.23;0.60;;;;;;;29.64;35.98;101786.81;6246308;23;20023;-43
2022/07/12 01:22:13;;;;;;;5.22;1.10;;;;;;;29.63;35.89;101779.75;6244843;23;20001;-45
2022/07/12 01:24:42;;;;;;;1.98;0.77;;;;;;;29.58;35.92;101783.28;6220046;23;20004;-43
2022/07/12 01:27:11;;;;;;;5.53;0.75;;;;;;;29.56;36.29;101780.59;6246771;23;20416;-43
2022/07/12 01:29:40;;;;;;;2.67;0.82;;;;;;;29.64;36.03;101777.97;6246673;23;20004;-43
2022/07/12 01:32:29;;;;;;;2.33;0.73;;;;;;;29.52;36.07;101779.72;6246374;23;20081;-44
2022/07/12 01:34:59;;;;;;;1.27;0.60;;;;;;;29.54;36.11;101779.72;6223545;23;20000;-48
2022/07/12 01:37:30;;;;;;;1.00;0.50;;;;;;;29.60;35.83;101786.81;6219067;23;20001;-44
2022/07/12 01:39:59;;;;;;;2.58;0.75;;;;;;;29.58;35.77;101783.28;6220406;23;20086;-43
2022/07/12 01:42:29;;;;;;;3.78;1.33;;;;;;;29.45;36.13;101782.34;6245637;23;20008;-44
2022/07/12 01:44:58;;;;;;;2.05;0.60;;;;;;;29.38;36.40;101779.69;6246337;23;20035;-44
2022/07/12 01:47:29;;;;;;;1.45;0.73;;;;;;;29.28;36.58;101769.06;6246392;23;20000;-56
2022/07/12 01:49:58;;;;;;;1.83;0.68;;;;;;;29.29;36.48;101790.19;6245886;23;20324;-45
2022/07/12 01:52:27;;;;;;;1.33;0.73;;;;;;;29.24;36.55;101776.97;6246318;23;20008;-44
2022/07/12 01:54:56;;;;;;;1.70;0.70;;;;;;;29.22;36.32;101772.53;6245493;23;20087;-43
2022/07/12 01:57:26;;;;;;;4.88;1.33;;;;;;;29.28;36.64;101783.16;6219418;23;20481;-46
2022/07/12 01:59:55;;;;;;;3.90;0.93;;;;;;;29.32;36.43;101791.97;6246370;23;20316;-44
2022/07/12 02:02:26;;;;;;;1.67;0.73;;;;;;;29.35;36.31;101797.28;6246072;23;20538;-45
2022/07/12 02:04:55;;;;;;;1.48;0.50;;;;;;;29.35;36.11;101787.63;6245802;23;20030;-46
2022/07/12 02:07:25;;;;;;;1.40;0.55;;;;;;;29.39;36.14;101791.16;6245600;23;20004;-43
2022/07/12 02:09:54;;;;;;;2.22;0.70;;;;;;;29.35;36.16;101794.66;6245924;23;20000;-47
2022/07/12 02:12:23;;;;;;;2.33;0.70;;;;;;;29.30;36.22;101801.63;6246303;23;20451;-44
2022/07/12 02:14:52;;;;;;;4.80;1.00;;;;;;;29.17;36.46;101798.97;6246068;23;20317;-56
2022/07/12 02:17:20;;;;;;;1.45;0.60;;;;;;;29.17;36.49;101798.97;6244620;23;20004;-44
2022/07/12 02:19:49;;;;;;;2.00;0.85;;;;;;;29.25;36.46;101797.25;6245490;23;20012;-46
2022/07/12 02:22:18;;;;;;;3.55;0.77;;;;;;;29.23;36.36;101804.28;6219229;23;20004;-45
2022/07/12 02:24:46;;;;;;;1.13;0.63;;;;;;;29.21;36.38;101787.53;6244158;23;20008;-43
2022/07/12 02:27:15;;;;;;;2.13;0.90;;;;;;;29.14;36.57;101793.66;6245228;23;20008;-44
2022/07/12 02:29:43;;;;;;;4.60;1.08;;;;;;;29.05;36.52;101786.56;6245494;23;20103;-43
2022/07/12 02:32:13;;;;;;;1.10;0.60;;;;;;;29.10;36.38;101792.78;6246286;23;20083;-50
2022/07/12 02:34:42;;;;;;;3.15;1.00;;;;;;;29.06;36.45;101790.13;6246088;23;20004;-44
2022/07/12 02:37:10;;;;;;;1.27;0.68;;;;;;;29.15;36.32;101799.84;6245548;23;20024;-44
2022/07/12 02:39:39;;;;;;;3.42;0.88;;;;;;;29.18;36.18;101805.16;6246063;23;20011;-56
2022/07/12 02:42:08;;;;;;;2.78;0.90;;;;;;;29.07;36.64;101805.97;6245640;23;20065;-43
2022/07/12 02:44:36;;;;;;;2.17;0.75;;;;;;;29.12;36.59;101813.94;6249079;23;20000;-44
2022/07/12 02:47:05;;;;;;;3.63;0.82;;;;;;;29.14;36.22;101808.63;6222530;23;20023;-45
2022/07/12 02:49:34;;;;;;;3.13;0.63;;;;;;;29.01;36.57;101802.41;6249327;23;20458;-44
2022/07/12 02:52:02;;;;;;;3.05;0.82;;;;;;;29.14;36.52;101808.63;6249004;23;20046;-49
2022/07/12 02:54:31;;;;;;;3.40;1.08;;;;;;;29.04;36.38;101786.56;6248970;23;20004;-43
2022/07/12 02:57:00;;;;;;;3.35;0.95;;;;;;;28.94;36.58;101781.28;6248872;23;20034;-44
2022/07/12 02:59:28;;;;;;;2.25;0.80;;;;;;;29.04;36.43;101798.00;6248537;23;20000;-44
2022/07/12 03:01:57;;;;;;;3.05;1.00;;;;;;;28.92;36.42;101798.88;6248959;23;20000;-43
2022/07/12 03:04:26;;;;;;;1.88;0.85;;;;;;;28.94;36.63;101801.50;6249332;23;20011;-44
2022/07/12 03:06:54;;;;;;;5.53;0.85;;;;;;;28.99;36.24;101798.88;6248711;23;20301;-43
2022/07/12 03:09:23;;;;;;;2.67;0.80;;;;;;;28.86;36.82;101797.94;6248512;23;20038;-48
2022/07/12 03:11:50;;;;;;;3.88;0.80;;;;;;;28.90;36.60;101803.25;6248497;23;20004;-46
2022/07/12 03:14:19;;;;;;;8.40;0.98;;;;;;;28.83;36.49;101793.50;6249109;23;20392;-56
2022/07/12 03:16:47;;;;;;;2.70;1.13;;;;;;;28.78;36.64;101790.84;6248680;23;20004;-47
2022/07/12 03:19:16;;;;;;;1.75;0.70;;;;;;;28.73;37.06;101796.94;6222379;23;20011;-43
2022/07/12 03:21:44;;;;;;;3.28;0.65;;;;;;;28.70;36.89;101800.47;6248858;23;20075;-43
2022/07/12 03:24:13;;;;;;;3.10;0.70;;;;;;;28.76;37.12;101797.88;6249096;23;20008;-49
2022/07/12 03:26:41;;;;;;;3.55;1.08;;;;;;;28.61;37.20;101792.47;6248780;23;20031;-45
2022/07/12 03:29:10;;;;;;;4.50;0.85;;;;;;;28.58;37.22;101803.00;6249093;23;20004;-49
2022/07/12 03:31:39;;;;;;;1.35;0.57;;;;;;;28.52;37.30;101803.84;6249156;23;20026;-50
2022/07/12 03:34:07;;;;;;;1.77;0.77;;;;;;;28.52;37.38;101803.00;6248698;23;20008;-47
2022/07/12 03:36:35;;;;;;;2.42;0.82;;;;;;;28.44;37.52;101806.44;6222081;23;20087;-49
2022/07/12 03:39:03;;;;;;;1.63;0.90;;;;;;;28.54;37.34;101794.19;6249168;23;20004;-45
2022/07/12 03:41:32;;;;;;;3.15;0.88;;;;;;;28.51;37.16;101802.09;6248745;23;20012;-46
2022/07/12 03:44:01;;;;;;;4.50;1.38;;;;;;;28.53;37.20;101799.47;6248909;23;20383;-44
2022/07/12 03:46:29;;;;;;;2.58;0.60;;;;;;;28.52;37.18;101795.94;6249139;23;20030;-46
2022/07/12 03:48:58;;;;;;;2.80;0.80;;;;;;;28.52;37.42;101803.00;6249173;23;20008;-49
2022/07/12 03:51:27;;;;;;;2.63;0.73;;;;;;;28.42;37.40;101786.19;6249032;23;20008;-43
2022/07/12 03:53:55;;;;;;;2.45;0.70;;;;;;;28.55;37.35;101801.25;6248410;23;20004;-46
2022/07/12 03:59:11;;;;;;;1.45;0.73;;;;;;;28.55;37.10;101809.16;6236475;23;20118;-49
2022/07/12 04:01:39;;;;;;;1.45;0.88;;;;;;;28.58;37.13;101797.72;6220188;23;20004;-48
2022/07/12 04:04:08;;;;;;;2.47;0.85;;;;;;;28.63;36.81;101811.84;6220946;23;20055;-50
2022/07/12 04:06:37;;;;;;;2.58;0.70;;;;;;;28.61;37.03;101805.69;6247147;23;20313;-43
2022/07/12 04:09:06;;;;;;;3.47;0.90;;;;;;;28.47;37.40;101808.22;6247639;23;20050;-45
2022/07/12 04:11:35;;;;;;;1.73;0.77;;;;;;;28.48;37.04;101815.25;6245863;23;20079;-48
2022/07/12 04:14:03;;;;;;;2.40;0.82;;;;;;;28.41;37.27;101810.81;6247462;23;20008;-47
2022/07/12 04:16:32;;;;;;;1.80;0.80;;;;;;;28.39;37.37;101810.78;6221212;23;20458;-45
2022/07/12 04:19:00;;;;;;;2.70;0.90;;;;;;;28.31;37.37;101821.28;6246879;23;20424;-46
2022/07/12 04:21:29;;;;;;;4.28;0.90;;;;;;;28.24;37.55;101808.94;6247259;23;20004;-45
2022/07/12 04:23:57;;;;;;;3.05;0.93;;;;;;;28.18;37.56;101814.16;6247062;23;20008;-43
2022/07/12 04:26:26;;;;;;;1.50;0.77;;;;;;;28.25;37.42;101815.97;6246745;23;20107;-44
2022/07/12 04:28:55;;;;;;;2.17;0.80;;;;;;;28.12;37.73;101811.47;6247148;23;20004;-44
2022/07/12 04:31:23;;;;;;;2.03;1.10;;;;;;;28.21;37.69;101824.72;6247226;23;20015;-46
2022/07/12 04:33:52;;;;;;;3.00;0.90;;;;;;;28.19;37.65;101826.47;6246785;23;20000;-54
2022/07/12 04:36:21;;;;;;;3.42;0.77;;;;;;;28.28;37.33;101821.28;6246676;23;20313;-46
2022/07/12 04:38:49;;;;;;;2.33;0.90;;;;;;;28.23;37.40;101825.63;6220856;23;20035;-42
2022/07/12 04:41:18;;;;;;;1.90;0.70;;;;;;;28.22;37.31;101823.88;6246326;23;20020;-47
2022/07/12 04:43:46;;;;;;;4.13;1.30;;;;;;;28.23;37.60;101822.09;6247319;23;20363;-45
2022/07/12 04:46:15;;;;;;;2.30;0.75;;;;;;;28.30;37.37;101821.28;6245072;23;20474;-52
2022/07/12 04:48:43;;;;;;;0.90;0.57;;;;;;;28.35;37.15;101822.22;6246278;23;20008;-50
2022/07/12 04:51:12;;;;;;;1.75;0.90;;;;;;;28.31;37.35;101820.41;6247831;23;20028;-44
2022/07/12 04:53:40;;;;;;;1.10;0.55;;;;;;;28.31;37.22;101823.94;6246692;23;20007;-43
2022/07/12 04:56:09;;;;;;;2.13;0.98;;;;;;;28.33;37.30;101821.31;6246531;23;20014;-49
2022/07/12 04:58:37;;;;;;;5.25;0.80;;;;;;;28.12;37.67;101830.81;6246749;23;20004;-46
2022/07/12 05:01:07;;;;;;;1.55;1.15;;;;;;;28.09;37.76;101833.38;6219916;23;20089;-44
2022/07/12 05:03:36;;;;;;;0.80;0.65;;;;;;;28.10;37.68;101844.88;6246456;23;20436;-45
2022/07/12 05:06:05;;;;;;;1.50;0.60;;;;;;;28.16;37.58;101837.88;6246265;23;20011;-45
2022/07/12 05:08:34;;;;;;;5.55;0.82;;;;;;;28.19;37.63;101837.03;6246979;23;20008;-47
2022/07/12 05:11:02;;;;;;;2.97;0.57;;;;;;;28.17;37.53;101839.66;6246864;23;20087;-50
2022/07/12 05:13:31;;;;;;;3.15;1.05;;;;;;;28.08;37.74;101839.53;6246598;23;20004;-56
2022/07/12 05:16:00;;;;;;;2.55;0.85;;;;;;;28.10;37.76;101840.47;6245998;23;20008;-43
2022/07/12 05:18:29;;;;;;;3.53;0.80;;;;;;;28.08;37.87;101838.66;6246277;23;20004;-43
2022/07/12 05:20:58;;;;;;;2.30;1.00;;;;;;;28.15;37.62;101845.78;6246166;23;20427;-42
2022/07/12 05:23:27;;;;;;;3.83;1.10;;;;;;;28.05;37.77;101850.94;6246835;23;20064;-47
2022/07/12 05:25:55;;;;;;;1.98;0.98;;;;;;;28.07;37.77;101844.81;6246270;23;20332;-45
2022/07/12 05:28:24;;;;;;;1.98;0.98;;;;;;;28.13;37.88;101843.13;6246337;23;20447;-43
2022/07/12 05:30:52;;;;;;;4.25;0.98;;;;;;;28.17;37.56;101847.56;6246207;23;20004;-45
2022/07/12 05:33:21;;;;;;;1.98;0.80;;;;;;;28.22;37.81;101847.59;6246620;23;20004;-50
2022/07/12 05:35:51;;;;;;;1.77;0.90;;;;;;;28.25;37.64;101852.00;6246485;23;20011;-43
2022/07/12 05:38:20;;;;;;;4.50;0.90;;;;;;;28.22;37.74;101847.59;6245967;23;20000;-51
2022/07/12 05:40:48;;;;;;;3.65;1.30;;;;;;;28.24;37.70;101855.53;6219564;23;20015;-45
2022/07/12 05:43:17;;;;;;;2.33;1.00;;;;;;;28.30;37.74;101853.81;6245681;23;20062;-50
2022/07/12 05:45:46;;;;;;;2.25;0.70;;;;;;;28.37;37.65;101857.44;6246296;23;20004;-45
2022/07/12 05:48:15;;;;;;;3.10;1.20;;;;;;;28.35;37.72;101859.16;6246788;23;20335;-42
2022/07/12 05:50:43;;;;;;;4.88;0.90;;;;;;;28.39;37.46;101860.94;6246502;23;20012;-48
2022/07/12 05:53:21;;;;;;;3.95;0.90;;;;;;;28.39;37.76;101854.78;6246339;23;20011;-45
2022/07/12 05:55:51;;;;;;;1.65;0.80;;;;;;;28.36;38.06;101853.00;6246642;23;20083;-44
2022/07/12 05:58:20;;;;;;;2.60;0.82;;;;;;;28.39;37.99;101860.94;6246443;23;20027;-42
2022/07/12 06:00:49;;;;;;;3.50;0.80;;;;;;;28.44;37.83;101868.91;6246161;23;20011;-46
2022/07/12 06:03:18;;;;;;;1.60;0.77;;;;;;;28.50;37.81;101858.38;6246694;23;20004;-45
2022/07/12 06:05:47;;;;;;;3.28;0.65;;;;;;;28.54;37.88;101854.91;6246871;23;20000;-46
2022/07/12 06:08:15;;;;;;;3.40;1.05;;;;;;;28.65;37.98;101860.28;6245964;23;20004;-47
2022/07/12 06:10:44;;;;;;;1.85;1.00;;;;;;;28.72;37.78;101874.41;6246333;23;20004;-52
2022/07/12 06:13:12;;;;;;;2.70;1.17;;;;;;;28.70;37.96;101874.41;6246024;23;20007;-47
2022/07/12 06:15:41;;;;;;;9.13;1.42;;;;;;;28.80;37.97;101878.88;6245719;23;20016;-50
2022/07/12 06:18:10;;;;;;;6.35;0.90;;;;;;;28.82;37.89;101870.97;6245384;23;20030;-44
2022/07/12 06:20:38;;;;;;;8.18;1.13;;;;;;;28.77;38.22;101878.00;6245930;23;20007;-43
2022/07/12 06:23:07;;;;;;;2.72;1.05;;;;;;;28.72;37.96;101858.56;6246148;23;20087;-45
2022/07/12 06:25:35;;;;;;;4.30;1.00;;;;;;;28.86;38.24;101877.19;6246127;23;20000;-46
2022/07/12 06:28:05;;;;;;;3.60;0.90;;;;;;;28.87;38.21;101884.22;6245664;23;20004;-44
2022/07/12 06:30:33;;;;;;;2.08;0.90;;;;;;;28.96;37.76;101886.91;6246117;23;20000;-45
2022/07/12 06:33:02;;;;;;;4.63;1.38;;;;;;;28.93;37.88;101890.44;6244880;23;20000;-45
2022/07/12 06:35:30;;;;;;;2.50;1.15;;;;;;;28.92;38.19;101888.66;6245770;23;20431;-46
2022/07/12 06:37:58;;;;;;;4.00;1.13;;;;;;;29.01;38.24;101894.84;6219513;23;20087;-46
2022/07/12 06:40:27;;;;;;;4.03;1.65;;;;;;;29.06;38.18;101901.06;6245757;23;20019;-47
2022/07/12 06:42:55;;;;;;;3.50;1.25;;;;;;;29.06;38.29;101898.41;6219740;23;20055;-45
2022/07/12 06:45:23;;;;;;;3.78;1.42;;;;;;;29.13;38.04;101901.97;6245877;23;20083;-46
2022/07/12 06:47:52;;;;;;;5.35;1.42;;;;;;;29.19;38.43;101897.63;6245406;23;20011;-49
2022/07/12 06:50:21;;;;;;;3.33;1.40;;;;;;;29.18;38.28;101901.13;6245538;23;20382;-44
2022/07/12 06:52:50;;;;;;;5.55;1.40;;;;;;;29.23;38.46;101901.16;6245940;23;20011;-45
2022/07/12 06:55:18;;;;;;;5.22;1.40;;;;;;;29.26;38.04;101907.34;6245725;23;20146;-46
2022/07/12 06:57:47;;;;;;;2.45;1.48;;;;;;;29.15;38.20;101885.25;6245734;23;20006;-45
2022/07/12 07:00:16;;;;;;;4.45;1.27;;;;;;;29.35;38.12;101903.00;6245750;23;20004;-44
2022/07/12 07:02:45;;;;;;;4.38;1.30;;;;;;;29.38;38.54;101908.31;6246131;23;20001;-43
2022/07/12 07:05:15;;;;;;;4.63;1.38;;;;;;;29.42;38.27;101915.38;6246599;23;20015;-49
2022/07/12 07:07:43;;;;;;;4.50;1.55;;;;;;;29.49;38.38;101906.59;6220034;23;20447;-46
2022/07/12 07:10:12;;;;;;;4.07;1.05;;;;;;;29.52;38.51;101914.53;6246116;23;20004;-45
2022/07/12 07:12:41;;;;;;;4.72;1.45;;;;;;;29.56;38.45;101911.03;6245427;23;20003;-47
2022/07/12 07:15:10;;;;;;;4.25;1.38;;;;;;;29.67;38.31;101920.78;6245610;23;20332;-45
2022/07/12 07:17:38;;;;;;;2.85;1.30;;;;;;;29.77;38.06;101921.69;6245958;23;20001;-49
2022/07/12 07:20:07;;;;;;;9.00;1.48;;;;;;;29.82;37.93;101919.94;6245277;23;20336;-44
2022/07/12 07:22:36;;;;;;;6.38;1.63;;;;;;;29.88;37.74;101925.25;6245433;23;20042;-45
2022/07/12 07:25:05;;;;;;;2.80;1.13;;;;;;;30.05;37.36;101927.97;6245241;23;20008;-47
2022/07/12 07:27:34;;;;;;;3.17;1.02;;;;;;;30.13;37.63;101926.22;6244521;23;20440;-50
2022/07/12 07:32:50;;;;;;;3.05;0.93;;;;;;;30.17;37.22;101928.00;6213902;23;20431;-43
2022/07/12 07:35:17;;;;;;;5.18;1.05;;;;;;;30.37;36.99;101929.78;6247084;23;20000;-43
2022/07/12 07:37:46;;;;;;;3.30;0.80;;;;;;;30.39;36.44;101933.31;6220208;23;20008;-44
2022/07/12 07:40:14;;;;;;;6.95;1.10;;;;;;;30.42;36.29;101933.34;6247794;23;20300;-54
2022/07/12 07:42:43;;;;;;;1.95;0.98;;;;;;;30.42;36.37;101930.69;6246809;23;20098;-43
2022/07/12 07:45:11;;;;;;;6.60;1.20;;;;;;;30.38;36.40;101934.22;6247294;23;20015;-43
2022/07/12 07:47:50;;;;;;;4.90;0.98;;;;;;;30.43;35.83;101940.41;6247033;23;20000;-56
2022/07/12 07:50:18;;;;;;;7.97;1.00;;;;;;;30.46;36.36;101953.59;6221032;23;20008;-44
2022/07/12 07:52:48;;;;;;;3.83;0.90;;;;;;;30.42;35.69;101928.03;6245998;23;20074;-43
2022/07/12 07:55:16;;;;;;;3.53;1.10;;;;;;;30.58;36.17;101949.25;6247137;23;20070;-43
2022/07/12 07:57:45;;;;;;;4.28;1.17;;;;;;;30.65;35.40;101948.38;6247289;23;20000;-43
2022/07/12 08:00:15;;;;;;;10.07;1.30;;;;;;;30.77;35.73;101953.69;6247302;23;20000;-44
2022/07/12 08:02:43;;;;;;;2.33;0.82;;;;;;;30.79;35.74;101944.81;6220756;23;20008;-45
2022/07/12 08:05:12;;;;;;;8.30;1.00;;;;;;;30.78;35.76;101949.25;6220897;23;20424;-44
2022/07/12 08:07:40;;;;;;;5.35;1.60;;;;;;;30.87;35.13;101956.31;6247191;23;20008;-42
2022/07/12 08:10:09;;;;;;;8.68;1.20;;;;;;;30.91;35.25;101961.59;6245792;23;20011;-44
2022/07/12 08:12:37;;;;;;;8.68;1.33;;;;;;;30.90;35.11;101965.13;6246976;23;20050;-43
2022/07/12 08:15:06;;;;;;;3.38;0.90;;;;;;;30.91;35.32;101958.09;6247073;23;20004;-44
2022/07/12 08:17:36;;;;;;;6.13;1.23;;;;;;;30.98;34.72;101965.13;6246883;23;20019;-44
2022/07/12 08:20:06;;;;;;;10.10;1.73;;;;;;;30.97;34.79;101966.00;6247001;23;20000;-51
2022/07/12 08:22:34;;;;;;;10.98;1.88;;;;;;;31.01;34.38;101972.19;6246858;23;20008;-44
2022/07/12 08:25:03;;;;;;;8.65;1.77;;;;;;;31.03;34.54;101983.66;6247015;23;20008;-44
2022/07/12 08:27:30;;;;;;;4.10;0.98;;;;;;;31.07;33.84;101969.53;6247129;23;20000;-47
2022/07/12 08:29:57;;;;;;;3.53;1.17;;;;;;;31.09;33.85;101966.88;6246881;23;20000;-43
2022/07/12 08:32:26;;;;;;;5.63;0.98;;;;;;;31.16;33.85;101981.91;6246523;23;20067;-49
2022/07/12 08:34:54;;;;;;;5.43;1.08;;;;;;;31.20;33.76;101978.38;6246690;23;20035;-43
2022/07/12 08:37:23;;;;;;;4.82;1.33;;;;;;;31.14;34.40;101975.72;6219863;23;20012;-43
2022/07/12 08:39:52;;;;;;;6.25;0.82;;;;;;;31.15;33.83;101957.19;6246379;23;20078;-44
2022/07/12 08:42:20;;;;;;;13.75;0.70;;;;;;;31.27;34.18;101987.19;6244505;23;20031;-46
2022/07/12 08:44:59;;;;;;;7.47;0.70;;;;;;;31.29;34.08;101988.09;6246964;23;20004;-45
2022/07/12 08:47:28;;;;;;;5.30;0.70;;;;;;;31.33;33.12;101981.91;6246846;23;20000;-44
2022/07/12 08:50:17;;;;;;;3.72;1.42;;;;;;;31.35;33.40;101986.28;6219726;23;20015;-45
2022/07/12 08:52:47;;;;;;;8.35;0.95;;;;;;;31.39;33.01;101984.50;6239341;23;20000;-44
2022/07/12 08:55:35;;;;;;;7.00;0.82;;;;;;;31.39;33.29;101988.94;6245988;23;20079;-43
2022/07/12 08:58:06;;;;;;;3.40;1.25;;;;;;;31.46;33.07;101990.69;6246828;23;20454;-45
2022/07/12 09:00:35;;;;;;;6.28;0.80;;;;;;;31.50;32.62;101976.53;6246626;23;20034;-44
2022/07/12 09:03:06;;;;;;;7.05;0.90;;;;;;;31.52;33.12;101991.53;6246584;23;20382;-49
2022/07/12 09:05:36;;;;;;;4.40;1.27;;;;;;;31.46;33.32;101988.94;6220661;23;20001;-44
2022/07/12 09:08:10;;;;;;;5.03;0.77;;;;;;;31.49;33.17;101998.63;6246701;23;20111;-48
2022/07/12 09:10:57;;;;;;;;;;;;;;;31.55;33.05;101998.63;6246603;23;20004;-44
2022/07/12 09:13:54;;;;;;;5.82;1.15;;;;;;;31.63;32.88;101996.81;6245661;23;19915;-54
2022/07/12 09:16:25;;;;;;;3.80;0.80;;;;;;;31.61;32.86;102003.88;6246152;23;20040;-45
2022/07/12 09:19:14;;;;;;;2.20;0.60;;;;;;;31.61;32.36;102003.03;6246655;23;20000;-45
2022/07/12 09:21:49;;;;;;;8.25;0.90;;;;;;;31.67;32.18;101998.56;6244861;23;20074;-44
2022/07/12 09:24:18;;;;;;;1.23;0.70;;;;;;;31.75;32.44;102001.22;6245310;23;20336;-47
2022/07/12 09:26:47;;;;;;;8.15;1.05;;;;;;;31.72;32.62;101998.59;6246171;23;20007;-45
2022/07/12 09:29:18;;;;;;;2.17;0.68;;;;;;;31.76;32.18;102007.44;6245408;23;19996;-45
2022/07/12 09:37:26;;;;;;;2.53;0.70;;;;;;;31.83;32.39;102009.16;6234684;23;20423;-51
2022/07/12 09:39:54;;;;;;;2.10;0.80;;;;;;;31.83;31.95;102003.84;6219935;23;20004;-44
2022/07/12 09:42:23;;;;;;;10.48;1.45;;;;;;;31.89;32.39;102011.78;6245929;23;20098;-49
2022/07/12 09:44:52;;;;;;;3.90;0.80;;;;;;;31.88;32.36;102017.09;6244991;23;20011;-44
2022/07/12 09:47:21;;;;;;;6.63;1.02;;;;;;;31.90;32.11;102013.56;6219379;23;20011;-45
2022/07/12 09:49:49;;;;;;;3.88;0.80;;;;;;;31.91;31.96;102012.69;6219890;23;20070;-45
2022/07/12 09:52:22;;;;;;;3.25;0.80;;;;;;;31.82;32.05;102018.00;6245084;23;20335;-47
2022/07/12 09:54:52;;;;;;;1.42;0.50;;;;;;;31.91;31.81;102020.63;6245684;23;20000;-47
2022/07/12 09:57:22;;;;;;;4.65;0.88;;;;;;;31.94;31.86;102020.59;6246002;23;20335;-44
2022/07/12 09:59:52;;;;;;;3.45;0.73;;;;;;;32.01;31.75;102023.22;6245366;23;20024;-47
2022/07/12 10:02:23;;;;;;;6.13;0.75;;;;;;;32.07;31.54;102028.53;6246154;23;20011;-49
2022/07/12 10:04:52;;;;;;;4.32;0.80;;;;;;;31.97;31.85;102017.94;6246016;23;20019;-44
2022/07/12 10:07:21;;;;;;;5.28;0.65;;;;;;;32.03;32.17;102018.81;6245655;23;20070;-43
2022/07/12 10:09:52;;;;;;;6.35;0.80;;;;;;;32.05;32.26;102023.19;6245636;23;20009;-45
2022/07/12 10:12:22;;;;;;;5.43;0.90;;;;;;;32.02;32.10;102027.66;6245784;23;20004;-43
2022/07/12 10:14:56;;;;;;;6.03;0.70;;;;;;;31.99;32.35;102031.22;6245938;23;20004;-43
2022/07/12 10:17:25;;;;;;;3.42;0.85;;;;;;;32.00;32.20;102040.94;6219057;23;20000;-44
2022/07/12 10:20:23;;;;;;;6.20;1.02;;;;;;;32.02;32.59;102039.13;6245988;23;20008;-48
2022/07/12 10:22:54;;;;;;;7.68;0.70;;;;;;;32.03;31.90;102037.38;6245479;23;20012;-45
2022/07/12 10:25:42;;;;;;;6.75;0.90;;;;;;;32.02;32.20;102035.63;6245978;23;20051;-44
2022/07/12 10:28:10;;;;;;;3.78;0.88;;;;;;;32.01;32.52;102041.81;6245711;23;20000;-53
2022/07/12 10:30:45;;;;;;;2.72;0.90;;;;;;;32.02;32.42;102039.13;6243605;23;20412;-44
2022/07/12 10:33:19;;;;;;;5.65;0.95;;;;;;;32.07;32.02;102039.13;6245808;23;20020;-46
2022/07/12 10:36:07;;;;;;;3.17;0.82;;;;;;;32.10;31.77;102042.66;6218734;23;20008;-47
2022/07/12 10:38:36;;;;;;;3.97;0.80;;;;;;;31.96;31.76;102037.41;6245821;23;20008;-45
2022/07/12 10:41:24;;;;;;;5.93;0.90;;;;;;;31.92;32.31;102040.97;6245166;23;20004;-45
2022/07/12 10:44:10;;;;;;;3.40;0.90;;;;;;;32.03;31.39;102032.06;6246179;23;20432;-45
2022/07/12 10:46:38;;;;;;;4.90;0.63;;;;;;;32.03;31.56;102037.38;6219147;23;20008;-44
2022/07/12 10:49:26;;;;;;;3.05;0.80;;;;;;;31.95;31.77;102040.06;6219598;23;20032;-44
2022/07/12 10:52:14;;;;;;;6.80;1.00;;;;;;;32.00;32.04;102035.63;6219813;23;20083;-45
2022/07/12 10:54:50;;;;;;;2.33;0.60;;;;;;;32.14;31.91;102038.19;6218805;23;20028;-44
2022/07/12 10:57:38;;;;;;;3.15;0.73;;;;;;;32.28;31.15;102038.19;6218522;23;20011;-44
2022/07/12 11:00:08;;;;;;;4.20;1.10;;;;;;;32.30;31.77;102041.72;6245505;23;20011;-44
2022/07/12 11:02:37;;;;;;;1.27;0.70;;;;;;;32.28;32.08;102040.81;6246485;23;20094;-44
2022/07/12 11:05:06;;;;;;;3.03;0.80;;;;;;;32.25;31.87;102028.44;6247419;23;20404;-48
2022/07/12 11:07:35;;;;;;;3.00;0.75;;;;;;;32.19;31.93;102020.50;6247480;23;20403;-44
2022/07/12 11:10:04;;;;;;;3.35;0.90;;;;;;;32.26;31.69;102035.53;6247673;23;20515;-44
2022/07/12 11:12:33;;;;;;;2.58;0.95;;;;;;;32.36;31.88;102035.47;6221141;23;20015;-44
2022/07/12 11:15:02;;;;;;;1.58;0.70;;;;;;;32.37;32.08;102034.59;6247595;23;20004;-51
2022/07/12 11:17:31;;;;;;;4.07;0.80;;;;;;;32.30;31.93;102035.50;6221312;23;20383;-48
2022/07/12 11:20:12;;;;;;;3.72;1.20;;;;;;;32.21;31.70;102032.00;6247839;23;20011;-51
2022/07/12 11:22:42;;;;;;;3.25;0.73;;;;;;;32.20;31.46;102037.28;6220576;23;20014;-45
2022/07/12 11:25:12;;;;;;;4.35;0.82;;;;;;;32.16;31.32;102025.81;6247364;23;20498;-43
2022/07/12 11:27:41;;;;;;;6.72;0.70;;;;;;;32.17;31.08;102032.03;6246109;23;20485;-44
2022/07/12 11:30:10;;;;;;;7.88;0.73;;;;;;;32.27;31.13;102034.63;6220392;23;20432;-44
2022/07/12 11:32:40;;;;;;;4.80;1.00;;;;;;;32.34;30.78;102029.28;6247272;23;20004;-47
2022/07/12 11:35:28;;;;;;;4.35;1.13;;;;;;;32.38;30.78;102028.38;6247891;23;20416;-43
2022/07/12 11:37:58;;;;;;;2.30;0.73;;;;;;;32.52;30.63;102030.94;6247336;23;20446;-49
2022/07/12 11:40:28;;;;;;;2.17;0.60;;;;;;;32.55;30.99;102033.56;6247065;23;20423;-47
2022/07/12 11:42:58;;;;;;;3.92;0.80;;;;;;;32.46;31.06;102021.22;6246731;23;20086;-44
2022/07/12 11:45:28;;;;;;;2.33;0.77;;;;;;;32.46;30.77;102023.03;6247574;23;20031;-45
2022/07/12 11:47:59;;;;;;;4.53;1.00;;;;;;;32.35;31.35;102008.03;6247674;23;20012;-44